sensor_id;sensor_type;location;lat;lon;timestamp;pressure;altitude;pressure_sealevel;temperature
64916;BMP280;51427;-27.442;153.014;2023-06-14T00:02:21;101602.91;;;23.55
64916;BMP280;51427;-27.442;153.014;2023-06-14T00:04:49;101600.66;;;23.01
64916;BMP280;51427;-27.442;153.014;2023-06-14T00:07:20;101584.94;;;24.25
64916;BMP280;51427;-27.442;153.014;2023-06-14T00:09:50;101585.78;;;24.35
64916;BMP280;51427;-27.442;153.014;2023-06-14T00:12:17;101577.59;;;24.41
64916;BMP280;51427;-27.442;153.014;2023-06-14T00:14:44;101581.06;;;23.92
64916;BMP280;51427;-27.442;153.014;2023-06-14T00:17:11;101572.53;;;24.21
64916;BMP280;51427;-27.442;153.014;2023-06-14T00:19:39;101566.19;;;24.83
64916;BMP280;51427;-27.442;153.014;2023-06-14T00:22:06;101575.72;;;24.90
64916;BMP280;51427;-27.442;153.014;2023-06-14T00:24:33;101567.00;;;24.74
64916;BMP280;51427;-27.442;153.014;2023-06-14T00:27:01;101564.03;;;25.16
64916;BMP280;51427;-27.442;153.014;2023-06-14T00:29:28;101564.81;;;25.16
64916;BMP280;51427;-27.442;153.014;2023-06-14T00:31:55;101568.63;;;25.58
64916;BMP280;51427;-27.442;153.014;2023-06-14T00:34:22;101564.16;;;24.96
64916;BMP280;51427;-27.442;153.014;2023-06-14T00:36:49;101564.78;;;24.32
64916;BMP280;51427;-27.442;153.014;2023-06-14T00:39:16;101555.09;;;24.92
64916;BMP280;51427;-27.442;153.014;2023-06-14T00:41:44;101560.16;;;25.67
64916;BMP280;51427;-27.442;153.014;2023-06-14T00:44:12;101551.91;;;25.73
64916;BMP280;51427;-27.442;153.014;2023-06-14T00:46:40;101541.59;;;25.27
64916;BMP280;51427;-27.442;153.014;2023-06-14T00:49:08;101542.91;;;25.50
64916;BMP280;51427;-27.442;153.014;2023-06-14T00:51:35;101535.19;;;25.05
64916;BMP280;51427;-27.442;153.014;2023-06-14T00:54:03;101529.34;;;25.21
64916;BMP280;51427;-27.442;153.014;2023-06-14T00:56:31;101520.53;;;25.43
64916;BMP280;51427;-27.442;153.014;2023-06-14T00:58:58;101523.06;;;25.06
64916;BMP280;51427;-27.442;153.014;2023-06-14T01:01:26;101518.91;;;25.51
64916;BMP280;51427;-27.442;153.014;2023-06-14T01:03:54;101509.91;;;25.74
64916;BMP280;51427;-27.442;153.014;2023-06-14T01:07:25;101512.00;;;25.15
64916;BMP280;51427;-27.442;153.014;2023-06-14T01:09:44;101505.53;;;25.48
64916;BMP280;51427;-27.442;153.014;2023-06-14T01:12:44;101504.34;;;25.42
64916;BMP280;51427;-27.442;153.014;2023-06-14T01:15:16;101494.72;;;25.63
64916;BMP280;51427;-27.442;153.014;2023-06-14T01:17:49;101490.84;;;25.50
64916;BMP280;51427;-27.442;153.014;2023-06-14T01:20:21;101491.41;;;25.44
64916;BMP280;51427;-27.442;153.014;2023-06-14T01:22:52;101474.59;;;25.58
64916;BMP280;51427;-27.442;153.014;2023-06-14T01:25:22;101462.56;;;26.12
64916;BMP280;51427;-27.442;153.014;2023-06-14T01:27:59;101466.34;;;25.91
64916;BMP280;51427;-27.442;153.014;2023-06-14T01:30:28;101460.03;;;25.68
64916;BMP280;51427;-27.442;153.014;2023-06-14T01:32:57;101455.66;;;25.42
64916;BMP280;51427;-27.442;153.014;2023-06-14T01:35:24;101456.50;;;26.13
64916;BMP280;51427;-27.442;153.014;2023-06-14T01:37:52;101454.72;;;25.43
64916;BMP280;51427;-27.442;153.014;2023-06-14T01:40:20;101442.47;;;25.91
64916;BMP280;51427;-27.442;153.014;2023-06-14T01:42:49;101439.53;;;25.59
64916;BMP280;51427;-27.442;153.014;2023-06-14T01:45:18;101433.53;;;26.12
64916;BMP280;51427;-27.442;153.014;2023-06-14T01:47:45;101431.69;;;26.22
64916;BMP280;51427;-27.442;153.014;2023-06-14T01:50:13;101416.16;;;25.89
64916;BMP280;51427;-27.442;153.014;2023-06-14T01:52:41;101415.94;;;26.17
64916;BMP280;51427;-27.442;153.014;2023-06-14T01:55:08;101406.19;;;26.80
64916;BMP280;51427;-27.442;153.014;2023-06-14T01:57:36;101396.56;;;27.07
64916;BMP280;51427;-27.442;153.014;2023-06-14T02:00:04;101392.28;;;26.40
64916;BMP280;51427;-27.442;153.014;2023-06-14T02:02:39;101383.72;;;27.07
64916;BMP280;51427;-27.442;153.014;2023-06-14T02:05:07;101380.56;;;26.63
64916;BMP280;51427;-27.442;153.014;2023-06-14T02:07:35;101382.16;;;26.64
64916;BMP280;51427;-27.442;153.014;2023-06-14T02:10:03;101372.63;;;25.97
64916;BMP280;51427;-27.442;153.014;2023-06-14T02:12:31;101343.53;;;26.73
64916;BMP280;51427;-27.442;153.014;2023-06-14T02:14:58;101358.06;;;27.23
64916;BMP280;51427;-27.442;153.014;2023-06-14T02:17:25;101358.66;;;26.51
64916;BMP280;51427;-27.442;153.014;2023-06-14T02:19:52;101352.72;;;27.09
64916;BMP280;51427;-27.442;153.014;2023-06-14T02:22:19;101350.75;;;26.70
64916;BMP280;51427;-27.442;153.014;2023-06-14T02:24:48;101347.13;;;26.80
64916;BMP280;51427;-27.442;153.014;2023-06-14T02:27:16;101352.28;;;25.78
64916;BMP280;51427;-27.442;153.014;2023-06-14T02:29:43;101326.94;;;26.35
64916;BMP280;51427;-27.442;153.014;2023-06-14T02:32:11;101328.00;;;26.83
64916;BMP280;51427;-27.442;153.014;2023-06-14T02:34:38;101316.94;;;26.82
64916;BMP280;51427;-27.442;153.014;2023-06-14T02:37:07;101321.38;;;26.97
64916;BMP280;51427;-27.442;153.014;2023-06-14T02:39:35;101316.16;;;26.82
64916;BMP280;51427;-27.442;153.014;2023-06-14T02:42:03;101315.38;;;26.13
64916;BMP280;51427;-27.442;153.014;2023-06-14T02:44:30;101309.59;;;26.11
64916;BMP280;51427;-27.442;153.014;2023-06-14T02:46:58;101306.00;;;26.47
64916;BMP280;51427;-27.442;153.014;2023-06-14T02:49:27;101315.94;;;26.25
64916;BMP280;51427;-27.442;153.014;2023-06-14T02:51:54;101308.72;;;26.45
64916;BMP280;51427;-27.442;153.014;2023-06-14T02:54:21;101315.25;;;25.80
64916;BMP280;51427;-27.442;153.014;2023-06-14T02:56:49;101309.97;;;25.47
64916;BMP280;51427;-27.442;153.014;2023-06-14T02:59:17;101311.72;;;25.47
64916;BMP280;51427;-27.442;153.014;2023-06-14T03:01:45;101300.03;;;26.21
64916;BMP280;51427;-27.442;153.014;2023-06-14T03:04:12;101299.78;;;25.90
64916;BMP280;51427;-27.442;153.014;2023-06-14T03:06:40;101289.97;;;26.02
64916;BMP280;51427;-27.442;153.014;2023-06-14T03:09:11;101279.56;;;26.54
64916;BMP280;51427;-27.442;153.014;2023-06-14T03:11:38;101281.91;;;26.40
64916;BMP280;51427;-27.442;153.014;2023-06-14T03:14:06;101265.22;;;27.18
64916;BMP280;51427;-27.442;153.014;2023-06-14T03:16:34;101266.59;;;26.89
64916;BMP280;51427;-27.442;153.014;2023-06-14T03:19:03;101274.31;;;26.31
64916;BMP280;51427;-27.442;153.014;2023-06-14T03:21:30;101269.66;;;26.59
64916;BMP280;51427;-27.442;153.014;2023-06-14T03:23:58;101261.72;;;26.45
64916;BMP280;51427;-27.442;153.014;2023-06-14T03:26:26;101261.22;;;26.16
64916;BMP280;51427;-27.442;153.014;2023-06-14T03:28:53;101260.84;;;26.11
64916;BMP280;51427;-27.442;153.014;2023-06-14T03:31:21;101260.06;;;26.36
64916;BMP280;51427;-27.442;153.014;2023-06-14T03:33:48;101246.06;;;26.56
64916;BMP280;51427;-27.442;153.014;2023-06-14T03:36:15;101254.66;;;25.97
64916;BMP280;51427;-27.442;153.014;2023-06-14T03:38:44;101229.91;;;26.30
64916;BMP280;51427;-27.442;153.014;2023-06-14T03:41:11;101233.66;;;26.18
64916;BMP280;51427;-27.442;153.014;2023-06-14T03:43:38;101232.84;;;26.18
64916;BMP280;51427;-27.442;153.014;2023-06-14T03:46:05;101234.06;;;26.31
64916;BMP280;51427;-27.442;153.014;2023-06-14T03:48:33;101233.84;;;26.58
64916;BMP280;51427;-27.442;153.014;2023-06-14T03:51:00;101234.78;;;26.41
64916;BMP280;51427;-27.442;153.014;2023-06-14T03:53:27;101227.50;;;26.11
64916;BMP280;51427;-27.442;153.014;2023-06-14T03:55:56;101236.28;;;26.26
64916;BMP280;51427;-27.442;153.014;2023-06-14T03:58:24;101231.34;;;26.07
64916;BMP280;51427;-27.442;153.014;2023-06-14T04:00:51;101240.97;;;25.88
64916;BMP280;51427;-27.442;153.014;2023-06-14T04:03:18;101243.16;;;26.26
64916;BMP280;51427;-27.442;153.014;2023-06-14T04:05:51;101238.28;;;26.15
64916;BMP280;51427;-27.442;153.014;2023-06-14T04:08:22;101234.13;;;26.47
64916;BMP280;51427;-27.442;153.014;2023-06-14T04:10:51;101227.97;;;26.65
64916;BMP280;51427;-27.442;153.014;2023-06-14T04:13:18;101239.22;;;26.64
64916;BMP280;51427;-27.442;153.014;2023-06-14T04:15:45;101242.69;;;25.80
64916;BMP280;51427;-27.442;153.014;2023-06-14T04:18:12;101237.94;;;26.35
64916;BMP280;51427;-27.442;153.014;2023-06-14T04:20:40;101230.72;;;26.72
64916;BMP280;51427;-27.442;153.014;2023-06-14T04:23:14;101240.41;;;26.02
64916;BMP280;51427;-27.442;153.014;2023-06-14T04:25:41;101239.91;;;26.41
64916;BMP280;51427;-27.442;153.014;2023-06-14T04:28:14;101236.97;;;26.36
64916;BMP280;51427;-27.442;153.014;2023-06-14T04:30:44;101229.41;;;26.35
64916;BMP280;51427;-27.442;153.014;2023-06-14T04:33:14;101232.53;;;26.46
64916;BMP280;51427;-27.442;153.014;2023-06-14T04:35:41;101236.94;;;25.86
64916;BMP280;51427;-27.442;153.014;2023-06-14T04:38:08;101230.84;;;26.29
64916;BMP280;51427;-27.442;153.014;2023-06-14T04:40:36;101224.78;;;26.30
64916;BMP280;51427;-27.442;153.014;2023-06-14T04:43:09;101216.63;;;26.76
64916;BMP280;51427;-27.442;153.014;2023-06-14T04:45:39;101231.00;;;26.61
64916;BMP280;51427;-27.442;153.014;2023-06-14T04:48:07;101226.41;;;26.39
64916;BMP280;51427;-27.442;153.014;2023-06-14T04:50:34;101220.00;;;25.93
64916;BMP280;51427;-27.442;153.014;2023-06-14T04:53:02;101228.13;;;26.64
64916;BMP280;51427;-27.442;153.014;2023-06-14T04:55:29;101233.84;;;25.74
64916;BMP280;51427;-27.442;153.014;2023-06-14T04:57:57;101224.47;;;25.91
64916;BMP280;51427;-27.442;153.014;2023-06-14T05:00:24;101223.03;;;26.39
64916;BMP280;51427;-27.442;153.014;2023-06-14T05:02:52;101216.59;;;26.09
64916;BMP280;51427;-27.442;153.014;2023-06-14T05:05:19;101221.72;;;26.09
64916;BMP280;51427;-27.442;153.014;2023-06-14T05:07:46;101222.53;;;25.50
64916;BMP280;51427;-27.442;153.014;2023-06-14T05:10:13;101220.13;;;25.31
64916;BMP280;51427;-27.442;153.014;2023-06-14T05:12:41;101226.72;;;25.51
64916;BMP280;51427;-27.442;153.014;2023-06-14T05:15:10;101233.66;;;25.06
64916;BMP280;51427;-27.442;153.014;2023-06-14T05:17:37;101230.31;;;24.97
64916;BMP280;51427;-27.442;153.014;2023-06-14T05:20:07;101229.94;;;24.65
64916;BMP280;51427;-27.442;153.014;2023-06-14T05:22:36;101233.81;;;24.96
64916;BMP280;51427;-27.442;153.014;2023-06-14T05:25:03;101219.97;;;24.62
64916;BMP280;51427;-27.442;153.014;2023-06-14T05:27:31;101223.28;;;24.45
64916;BMP280;51427;-27.442;153.014;2023-06-14T05:30:01;101240.78;;;24.50
64916;BMP280;51427;-27.442;153.014;2023-06-14T05:32:30;101240.56;;;24.24
64916;BMP280;51427;-27.442;153.014;2023-06-14T05:34:57;101248.91;;;24.36
64916;BMP280;51427;-27.442;153.014;2023-06-14T05:37:24;101248.69;;;24.11
64916;BMP280;51427;-27.442;153.014;2023-06-14T05:39:52;101278.59;;;24.01
64916;BMP280;51427;-27.442;153.014;2023-06-14T05:42:19;101273.47;;;23.91
64916;BMP280;51427;-27.442;153.014;2023-06-14T05:44:46;101284.88;;;24.06
64916;BMP280;51427;-27.442;153.014;2023-06-14T05:47:13;101295.53;;;23.92
64916;BMP280;51427;-27.442;153.014;2023-06-14T05:49:41;101292.56;;;24.06
64916;BMP280;51427;-27.442;153.014;2023-06-14T05:52:09;101287.59;;;23.76
64916;BMP280;51427;-27.442;153.014;2023-06-14T05:54:37;101291.53;;;23.71
64916;BMP280;51427;-27.442;153.014;2023-06-14T05:57:05;101305.16;;;23.32
64916;BMP280;51427;-27.442;153.014;2023-06-14T05:59:32;101300.88;;;23.61
64916;BMP280;51427;-27.442;153.014;2023-06-14T06:02:00;101299.25;;;23.32
64916;BMP280;51427;-27.442;153.014;2023-06-14T06:04:27;101312.44;;;23.46
64916;BMP280;51427;-27.442;153.014;2023-06-14T06:06:54;101322.13;;;23.43
64916;BMP280;51427;-27.442;153.014;2023-06-14T06:09:21;101328.25;;;23.21
64916;BMP280;51427;-27.442;153.014;2023-06-14T06:11:48;101330.09;;;23.10
64916;BMP280;51427;-27.442;153.014;2023-06-14T06:14:16;101333.44;;;23.11
64916;BMP280;51427;-27.442;153.014;2023-06-14T06:16:43;101337.88;;;22.79
64916;BMP280;51427;-27.442;153.014;2023-06-14T06:19:10;101340.22;;;22.71
64916;BMP280;51427;-27.442;153.014;2023-06-14T06:21:37;101336.19;;;22.69
64916;BMP280;51427;-27.442;153.014;2023-06-14T06:24:05;101339.84;;;22.75
64916;BMP280;51427;-27.442;153.014;2023-06-14T06:26:33;101351.22;;;22.62
64916;BMP280;51427;-27.442;153.014;2023-06-14T06:29:00;101355.19;;;22.55
64916;BMP280;51427;-27.442;153.014;2023-06-14T06:31:27;101352.19;;;22.30
64916;BMP280;51427;-27.442;153.014;2023-06-14T06:33:56;101350.69;;;22.27
64916;BMP280;51427;-27.442;153.014;2023-06-14T06:36:23;101359.97;;;22.28
64916;BMP280;51427;-27.442;153.014;2023-06-14T06:38:51;101362.75;;;22.26
64916;BMP280;51427;-27.442;153.014;2023-06-14T06:41:18;101366.84;;;22.17
64916;BMP280;51427;-27.442;153.014;2023-06-14T06:43:46;101363.03;;;22.12
64916;BMP280;51427;-27.442;153.014;2023-06-14T06:46:13;101379.28;;;22.11
64916;BMP280;51427;-27.442;153.014;2023-06-14T06:48:40;101381.75;;;22.01
64916;BMP280;51427;-27.442;153.014;2023-06-14T06:51:07;101391.03;;;21.91
64916;BMP280;51427;-27.442;153.014;2023-06-14T06:53:35;101392.88;;;21.89
64916;BMP280;51427;-27.442;153.014;2023-06-14T06:56:02;101401.75;;;21.64
64916;BMP280;51427;-27.442;153.014;2023-06-14T06:58:29;101398.16;;;21.34
64916;BMP280;51427;-27.442;153.014;2023-06-14T07:00:57;101399.19;;;21.31
64916;BMP280;51427;-27.442;153.014;2023-06-14T07:03:24;101405.69;;;21.13
64916;BMP280;51427;-27.442;153.014;2023-06-14T07:05:51;101401.63;;;21.11
64916;BMP280;51427;-27.442;153.014;2023-06-14T07:08:18;101408.63;;;20.75
64916;BMP280;51427;-27.442;153.014;2023-06-14T07:10:45;101428.78;;;20.54
64916;BMP280;51427;-27.442;153.014;2023-06-14T07:13:13;101426.38;;;20.06
64916;BMP280;51427;-27.442;153.014;2023-06-14T07:15:40;101425.56;;;20.29
64916;BMP280;51427;-27.442;153.014;2023-06-14T07:18:07;101436.06;;;20.25
64916;BMP280;51427;-27.442;153.014;2023-06-14T07:20:35;101450.75;;;19.73
64916;BMP280;51427;-27.442;153.014;2023-06-14T07:23:04;101447.91;;;20.13
64916;BMP280;51427;-27.442;153.014;2023-06-14T07:25:32;101445.75;;;20.20
64916;BMP280;51427;-27.442;153.014;2023-06-14T07:27:59;101459.25;;;20.20
64916;BMP280;51427;-27.442;153.014;2023-06-14T07:30:26;101455.94;;;19.59
64916;BMP280;51427;-27.442;153.014;2023-06-14T07:32:53;101450.41;;;20.26
64916;BMP280;51427;-27.442;153.014;2023-06-14T07:35:21;101456.28;;;20.26
64916;BMP280;51427;-27.442;153.014;2023-06-14T07:37:48;101446.66;;;20.19
64916;BMP280;51427;-27.442;153.014;2023-06-14T07:40:16;101455.25;;;20.29
64916;BMP280;51427;-27.442;153.014;2023-06-14T07:42:43;101466.13;;;20.31
64916;BMP280;51427;-27.442;153.014;2023-06-14T07:45:12;101465.56;;;19.92
64916;BMP280;51427;-27.442;153.014;2023-06-14T07:47:40;101479.16;;;19.78
64916;BMP280;51427;-27.442;153.014;2023-06-14T07:50:07;101480.53;;;20.07
64916;BMP280;51427;-27.442;153.014;2023-06-14T07:52:34;101487.41;;;20.17
64916;BMP280;51427;-27.442;153.014;2023-06-14T07:55:02;101480.44;;;20.32
64916;BMP280;51427;-27.442;153.014;2023-06-14T07:57:29;101482.66;;;20.36
64916;BMP280;51427;-27.442;153.014;2023-06-14T07:59:56;101490.59;;;20.32
64916;BMP280;51427;-27.442;153.014;2023-06-14T08:02:24;101494.00;;;19.97
64916;BMP280;51427;-27.442;153.014;2023-06-14T08:04:51;101496.53;;;19.84
64916;BMP280;51427;-27.442;153.014;2023-06-14T08:07:18;101498.78;;;20.01
64916;BMP280;51427;-27.442;153.014;2023-06-14T08:09:46;101489.72;;;19.97
64916;BMP280;51427;-27.442;153.014;2023-06-14T08:12:13;101488.06;;;19.84
64916;BMP280;51427;-27.442;153.014;2023-06-14T08:14:41;101493.25;;;19.82
64916;BMP280;51427;-27.442;153.014;2023-06-14T08:17:08;101503.97;;;19.75
64916;BMP280;51427;-27.442;153.014;2023-06-14T08:19:36;101502.22;;;19.75
64916;BMP280;51427;-27.442;153.014;2023-06-14T08:22:03;101505.38;;;19.79
64916;BMP280;51427;-27.442;153.014;2023-06-14T08:24:30;101512.00;;;19.69
64916;BMP280;51427;-27.442;153.014;2023-06-14T08:26:57;101507.22;;;19.64
64916;BMP280;51427;-27.442;153.014;2023-06-14T08:29:27;101520.31;;;19.58
64916;BMP280;51427;-27.442;153.014;2023-06-14T08:31:57;101518.00;;;19.43
64916;BMP280;51427;-27.442;153.014;2023-06-14T08:34:24;101518.09;;;19.42
64916;BMP280;51427;-27.442;153.014;2023-06-14T08:36:51;101511.59;;;19.25
64916;BMP280;51427;-27.442;153.014;2023-06-14T08:39:18;101520.00;;;19.13
64916;BMP280;51427;-27.442;153.014;2023-06-14T08:41:47;101522.72;;;19.10
64916;BMP280;51427;-27.442;153.014;2023-06-14T08:44:17;101524.69;;;19.19
64916;BMP280;51427;-27.442;153.014;2023-06-14T08:46:45;101525.94;;;19.00
64916;BMP280;51427;-27.442;153.014;2023-06-14T08:49:16;101542.94;;;19.12
64916;BMP280;51427;-27.442;153.014;2023-06-14T08:51:44;101546.97;;;19.02
64916;BMP280;51427;-27.442;153.014;2023-06-14T08:54:14;101553.63;;;18.91
64916;BMP280;51427;-27.442;153.014;2023-06-14T08:56:42;101549.69;;;18.73
64916;BMP280;51427;-27.442;153.014;2023-06-14T08:59:11;101546.78;;;18.79
64916;BMP280;51427;-27.442;153.014;2023-06-14T09:01:38;101547.50;;;18.81
64916;BMP280;51427;-27.442;153.014;2023-06-14T09:04:06;101545.38;;;18.61
64916;BMP280;51427;-27.442;153.014;2023-06-14T09:06:33;101545.81;;;18.41
64916;BMP280;51427;-27.442;153.014;2023-06-14T09:09:00;101550.63;;;18.46
64916;BMP280;51427;-27.442;153.014;2023-06-14T09:11:28;101547.25;;;18.45
64916;BMP280;51427;-27.442;153.014;2023-06-14T09:13:55;101549.66;;;18.20
64916;BMP280;51427;-27.442;153.014;2023-06-14T09:16:23;101554.91;;;18.04
64916;BMP280;51427;-27.442;153.014;2023-06-14T09:18:50;101565.66;;;17.79
64916;BMP280;51427;-27.442;153.014;2023-06-14T09:21:17;101577.25;;;17.83
64916;BMP280;51427;-27.442;153.014;2023-06-14T09:23:47;101578.28;;;17.52
64916;BMP280;51427;-27.442;153.014;2023-06-14T09:26:18;101600.84;;;17.41
64916;BMP280;51427;-27.442;153.014;2023-06-14T09:28:50;101589.81;;;17.71
64916;BMP280;51427;-27.442;153.014;2023-06-14T09:31:19;101597.91;;;17.48
64916;BMP280;51427;-27.442;153.014;2023-06-14T09:33:48;101593.88;;;17.73
64916;BMP280;51427;-27.442;153.014;2023-06-14T09:36:26;101598.03;;;17.74
64916;BMP280;51427;-27.442;153.014;2023-06-14T09:38:57;101598.03;;;17.74
64916;BMP280;51427;-27.442;153.014;2023-06-14T09:41:39;101613.38;;;17.28
64916;BMP280;51427;-27.442;153.014;2023-06-14T09:44:08;101618.44;;;17.13
64916;BMP280;51427;-27.442;153.014;2023-06-14T09:46:36;101628.44;;;16.70
64916;BMP280;51427;-27.442;153.014;2023-06-14T09:49:05;101643.69;;;16.21
64916;BMP280;51427;-27.442;153.014;2023-06-14T09:51:32;101640.94;;;16.26
64916;BMP280;51427;-27.442;153.014;2023-06-14T09:54:01;101642.19;;;16.49
64916;BMP280;51427;-27.442;153.014;2023-06-14T09:56:51;101650.75;;;16.77
64916;BMP280;51427;-27.442;153.014;2023-06-14T09:59:26;101651.38;;;16.82
64916;BMP280;51427;-27.442;153.014;2023-06-14T10:01:58;101653.13;;;16.80
64916;BMP280;51427;-27.442;153.014;2023-06-14T10:04:27;101660.47;;;16.85
64916;BMP280;51427;-27.442;153.014;2023-06-14T10:06:56;101657.94;;;16.70
64916;BMP280;51427;-27.442;153.014;2023-06-14T10:09:23;101653.19;;;16.64
64916;BMP280;51427;-27.442;153.014;2023-06-14T10:11:51;101670.47;;;16.56
64916;BMP280;51427;-27.442;153.014;2023-06-14T10:14:19;101668.22;;;16.67
64916;BMP280;51427;-27.442;153.014;2023-06-14T10:17:10;101660.56;;;16.83
64916;BMP280;51427;-27.442;153.014;2023-06-14T10:22:44;101669.69;;;17.01
64916;BMP280;51427;-27.442;153.014;2023-06-14T10:25:25;101662.03;;;16.87
64916;BMP280;51427;-27.442;153.014;2023-06-14T10:27:53;101662.94;;;16.86
64916;BMP280;51427;-27.442;153.014;2023-06-14T10:30:26;101665.78;;;16.80
64916;BMP280;51427;-27.442;153.014;2023-06-14T10:33:05;101668.81;;;16.72
64916;BMP280;51427;-27.442;153.014;2023-06-14T10:35:33;101663.06;;;16.68
64916;BMP280;51427;-27.442;153.014;2023-06-14T10:38:09;101661.16;;;16.73
64916;BMP280;51427;-27.442;153.014;2023-06-14T10:40:37;101675.16;;;16.78
64916;BMP280;51427;-27.442;153.014;2023-06-14T10:43:24;101659.75;;;16.68
64916;BMP280;51427;-27.442;153.014;2023-06-14T10:46:14;101664.06;;;16.66
64916;BMP280;51427;-27.442;153.014;2023-06-14T10:48:43;101670.91;;;16.48
64916;BMP280;51427;-27.442;153.014;2023-06-14T10:51:20;101667.28;;;16.37
64916;BMP280;51427;-27.442;153.014;2023-06-14T10:53:49;101674.59;;;16.26
64916;BMP280;51427;-27.442;153.014;2023-06-14T10:56:30;101671.16;;;16.27
64916;BMP280;51427;-27.442;153.014;2023-06-14T10:58:58;101679.47;;;16.12
64916;BMP280;51427;-27.442;153.014;2023-06-14T11:01:40;101673.16;;;16.21
64916;BMP280;51427;-27.442;153.014;2023-06-14T11:04:10;101673.41;;;16.33
64916;BMP280;51427;-27.442;153.014;2023-06-14T11:06:51;101672.63;;;16.31
64916;BMP280;51427;-27.442;153.014;2023-06-14T11:12:05;101677.03;;;16.28
64916;BMP280;51427;-27.442;153.014;2023-06-14T11:14:34;101676.66;;;16.18
64916;BMP280;51427;-27.442;153.014;2023-06-14T11:17:02;101692.19;;;16.11
64916;BMP280;51427;-27.442;153.014;2023-06-14T11:19:29;101695.41;;;15.97
64916;BMP280;51427;-27.442;153.014;2023-06-14T11:21:59;101699.91;;;16.08
64916;BMP280;51427;-27.442;153.014;2023-06-14T11:24:27;101702.97;;;15.97
64916;BMP280;51427;-27.442;153.014;2023-06-14T11:26:56;101697.28;;;16.09
64916;BMP280;51427;-27.442;153.014;2023-06-14T11:29:24;101703.03;;;16.13
64916;BMP280;51427;-27.442;153.014;2023-06-14T11:31:52;101686.63;;;15.87
64916;BMP280;51427;-27.442;153.014;2023-06-14T11:34:19;101702.25;;;15.79
64916;BMP280;51427;-27.442;153.014;2023-06-14T11:36:47;101716.84;;;15.55
64916;BMP280;51427;-27.442;153.014;2023-06-14T11:39:15;101719.84;;;15.45
64916;BMP280;51427;-27.442;153.014;2023-06-14T11:41:44;101714.84;;;15.62
64916;BMP280;51427;-27.442;153.014;2023-06-14T11:44:12;101712.41;;;15.77
64916;BMP280;51427;-27.442;153.014;2023-06-14T11:46:40;101716.03;;;15.88
64916;BMP280;51427;-27.442;153.014;2023-06-14T11:49:08;101711.72;;;15.90
64916;BMP280;51427;-27.442;153.014;2023-06-14T11:51:36;101707.50;;;15.91
64916;BMP280;51427;-27.442;153.014;2023-06-14T11:54:05;101708.75;;;15.83
64916;BMP280;51427;-27.442;153.014;2023-06-14T11:56:34;101705.34;;;15.67
64916;BMP280;51427;-27.442;153.014;2023-06-14T11:59:03;101705.31;;;15.50
64916;BMP280;51427;-27.442;153.014;2023-06-14T12:01:35;101704.09;;;15.58
64916;BMP280;51427;-27.442;153.014;2023-06-14T12:04:04;101701.25;;;15.47
64916;BMP280;51427;-27.442;153.014;2023-06-14T12:06:32;101701.38;;;15.44
64916;BMP280;51427;-27.442;153.014;2023-06-14T12:09:06;101694.31;;;15.34
64916;BMP280;51427;-27.442;153.014;2023-06-14T12:11:37;101691.59;;;15.39
64916;BMP280;51427;-27.442;153.014;2023-06-14T12:14:05;101693.75;;;15.46
64916;BMP280;51427;-27.442;153.014;2023-06-14T12:16:35;101698.53;;;15.15
64916;BMP280;51427;-27.442;153.014;2023-06-14T12:19:16;101693.16;;;15.41
64916;BMP280;51427;-27.442;153.014;2023-06-14T12:21:47;101699.75;;;15.43
64916;BMP280;51427;-27.442;153.014;2023-06-14T12:24:19;101696.03;;;15.34
64916;BMP280;51427;-27.442;153.014;2023-06-14T12:26:46;101695.38;;;15.47
64916;BMP280;51427;-27.442;153.014;2023-06-14T12:29:14;101714.38;;;15.19
64916;BMP280;51427;-27.442;153.014;2023-06-14T12:31:41;101706.31;;;15.29
64916;BMP280;51427;-27.442;153.014;2023-06-14T12:34:09;101711.38;;;15.29
64916;BMP280;51427;-27.442;153.014;2023-06-14T12:36:37;101715.66;;;15.09
64916;BMP280;51427;-27.442;153.014;2023-06-14T12:39:11;101708.63;;;15.15
64916;BMP280;51427;-27.442;153.014;2023-06-14T12:41:38;101699.69;;;15.08
64916;BMP280;51427;-27.442;153.014;2023-06-14T12:44:08;101704.81;;;14.70
64916;BMP280;51427;-27.442;153.014;2023-06-14T12:46:37;101698.47;;;14.98
64916;BMP280;51427;-27.442;153.014;2023-06-14T12:49:08;101697.72;;;15.15
64916;BMP280;51427;-27.442;153.014;2023-06-14T12:51:38;101702.22;;;15.27
64916;BMP280;51427;-27.442;153.014;2023-06-14T12:54:06;101698.28;;;15.21
64916;BMP280;51427;-27.442;153.014;2023-06-14T12:56:34;101703.88;;;15.28
64916;BMP280;51427;-27.442;153.014;2023-06-14T12:59:02;101701.53;;;15.05
64916;BMP280;51427;-27.442;153.014;2023-06-14T13:01:29;101698.94;;;15.06
64916;BMP280;51427;-27.442;153.014;2023-06-14T13:03:57;101697.94;;;15.10
64916;BMP280;51427;-27.442;153.014;2023-06-14T13:06:24;101704.69;;;14.92
64916;BMP280;51427;-27.442;153.014;2023-06-14T13:08:52;101698.16;;;14.88
64916;BMP280;51427;-27.442;153.014;2023-06-14T13:11:21;101702.50;;;14.66
64916;BMP280;51427;-27.442;153.014;2023-06-14T13:13:49;101709.13;;;14.68
64916;BMP280;51427;-27.442;153.014;2023-06-14T13:16:17;101715.44;;;14.77
64916;BMP280;51427;-27.442;153.014;2023-06-14T13:18:44;101713.53;;;14.82
64916;BMP280;51427;-27.442;153.014;2023-06-14T13:21:12;101719.53;;;14.79
64916;BMP280;51427;-27.442;153.014;2023-06-14T13:23:40;101710.53;;;14.74
64916;BMP280;51427;-27.442;153.014;2023-06-14T13:26:07;101703.59;;;14.79
64916;BMP280;51427;-27.442;153.014;2023-06-14T13:28:35;101711.13;;;14.22
64916;BMP280;51427;-27.442;153.014;2023-06-14T13:31:03;101704.53;;;14.58
64916;BMP280;51427;-27.442;153.014;2023-06-14T13:33:30;101702.03;;;14.38
64916;BMP280;51427;-27.442;153.014;2023-06-14T13:36:01;101706.41;;;13.95
64916;BMP280;51427;-27.442;153.014;2023-06-14T13:38:29;101715.78;;;14.31